createdAt,value
2023-01-13T00:00:07.022Z,8.70
2023-01-13T00:03:08.680Z,8.73
2023-01-13T00:06:13.160Z,7.72
2023-01-13T00:09:14.752Z,8.47
2023-01-13T00:12:16.448Z,8.75
2023-01-13T00:15:18.081Z,8.63
2023-01-13T00:18:19.640Z,8.93
2023-01-13T00:21:23.436Z,9.13
2023-01-13T00:24:25.145Z,8.90
2023-01-13T00:27:26.773Z,8.52
2023-01-13T00:30:28.373Z,8.23
2023-01-13T00:33:29.916Z,9.00
2023-01-13T00:36:31.744Z,8.60
2023-01-13T00:39:36.619Z,8.47
2023-01-13T00:42:56.532Z,8.75
2023-01-13T00:45:58.236Z,8.60
2023-01-13T00:48:59.825Z,8.23
2023-01-13T00:52:01.447Z,7.40
2023-01-13T00:55:06.903Z,7.88
2023-01-13T00:58:11.534Z,7.45
2023-01-13T01:01:18.266Z,7.60
2023-01-13T01:04:19.943Z,7.45
2023-01-13T01:07:21.502Z,7.00
2023-01-13T01:10:26.371Z,7.60
2023-01-13T01:13:31.878Z,7.60
2023-01-13T01:16:33.700Z,6.47
2023-01-13T01:19:37.548Z,6.35
2023-01-13T01:22:39.117Z,6.13
2023-01-13T01:25:40.723Z,6.57
2023-01-13T01:28:42.582Z,5.95
2023-01-13T01:31:44.260Z,6.60
2023-01-13T01:34:45.911Z,5.57
2023-01-13T01:37:47.476Z,5.05
2023-01-13T01:40:52.667Z,5.55
2023-01-13T01:44:01.669Z,5.78
2023-01-13T01:47:03.281Z,5.75
2023-01-13T01:50:05.221Z,5.40
2023-01-13T01:53:11.927Z,5.73
2023-01-13T01:56:16.650Z,5.80
2023-01-13T01:59:22.178Z,5.50
2023-01-13T02:02:23.828Z,5.38
2023-01-13T02:05:25.448Z,5.57
2023-01-13T02:08:27.075Z,5.05
2023-01-13T02:11:55.932Z,5.15
2023-01-13T02:15:06.300Z,4.80
2023-01-13T02:18:35.843Z,4.75
2023-01-13T02:21:59.109Z,4.88
2023-01-13T02:25:25.549Z,5.60
2023-01-13T02:29:23.637Z,5.32
2023-01-13T02:33:07.925Z,4.93
2023-01-13T02:36:11.849Z,5.82
2023-01-13T02:39:22.912Z,5.30
2023-01-13T02:42:49.660Z,5.10
2023-01-13T02:45:53.780Z,4.55
2023-01-13T02:48:55.931Z,4.90
2023-01-13T02:52:00.835Z,4.43
2023-01-13T02:55:12.253Z,4.90
2023-01-13T02:58:18.653Z,4.97
2023-01-13T03:01:20.399Z,3.85
2023-01-13T03:04:46.436Z,4.30
2023-01-13T03:07:53.404Z,4.53
2023-01-13T03:11:14.922Z,4.20
2023-01-13T03:14:33.903Z,4.85
2023-01-13T03:18:04.660Z,4.93
2023-01-13T03:21:21.266Z,5.23
2023-01-13T03:24:26.051Z,5.13
2023-01-13T03:27:46.037Z,4.90
2023-01-13T03:30:53.999Z,4.97
2023-01-13T03:33:57.928Z,5.45
2023-01-13T03:36:59.873Z,4.70
2023-01-13T03:40:05.011Z,5.28
2023-01-13T03:43:28.121Z,5.47
2023-01-13T03:46:51.028Z,5.28
2023-01-13T03:50:23.565Z,4.90
2023-01-13T03:53:34.173Z,4.83
2023-01-13T03:56:48.087Z,5.72
2023-01-13T03:59:54.499Z,6.95
2023-01-13T04:03:04.530Z,7.35
2023-01-13T04:06:40.708Z,7.07
2023-01-13T04:09:52.665Z,6.80
2023-01-13T04:13:06.089Z,5.65
2023-01-13T04:16:08.045Z,6.90
2023-01-13T04:19:09.739Z,7.03
2023-01-13T04:22:11.391Z,8.48
2023-01-13T04:25:12.979Z,8.82
2023-01-13T04:28:19.195Z,7.67
2023-01-13T04:31:21.081Z,7.65
2023-01-13T04:34:22.705Z,6.32
2023-01-13T04:37:24.307Z,6.37
2023-01-13T04:40:25.907Z,5.57
2023-01-13T04:43:27.621Z,4.95
2023-01-13T04:46:33.396Z,5.75
2023-01-13T04:49:35.100Z,5.18
2023-01-13T04:52:36.748Z,5.53
2023-01-13T04:55:38.409Z,5.68
2023-01-13T04:58:42.845Z,5.00
2023-01-13T05:01:44.522Z,5.60
2023-01-13T05:04:47.329Z,5.18
2023-01-13T05:07:48.994Z,5.07
2023-01-13T05:10:50.653Z,4.70
2023-01-13T05:14:10.864Z,4.40
2023-01-13T05:17:22.948Z,3.97
2023-01-13T05:20:24.680Z,5.57
2023-01-13T05:23:44.993Z,7.28
2023-01-13T05:26:46.603Z,10.23
2023-01-13T05:29:52.381Z,10.32
2023-01-13T05:32:54.075Z,10.83
2023-01-13T05:35:55.656Z,8.38
2023-01-13T05:38:57.324Z,8.65
2023-01-13T05:42:17.236Z,9.05
2023-01-13T05:45:21.815Z,8.03
2023-01-13T05:48:29.133Z,8.48
2023-01-13T05:51:30.712Z,8.45
2023-01-13T05:54:32.559Z,8.50
2023-01-13T05:57:34.138Z,8.53
2023-01-13T06:00:35.772Z,9.73
2023-01-13T06:03:37.498Z,9.18
2023-01-13T06:06:39.178Z,9.77
2023-01-13T06:09:40.785Z,10.90
2023-01-13T06:12:42.385Z,11.20
2023-01-13T06:15:44.026Z,12.75
2023-01-13T06:18:45.628Z,23.00
2023-01-13T06:21:48.687Z,25.38
2023-01-13T06:24:50.828Z,23.25
2023-01-13T06:27:52.458Z,18.93
2023-01-13T06:30:57.878Z,18.27
2023-01-13T06:34:05.381Z,15.93
2023-01-13T06:37:07.087Z,14.40
2023-01-13T06:40:11.919Z,15.45
2023-01-13T06:43:17.141Z,17.70
2023-01-13T06:46:19.150Z,18.92
2023-01-13T06:49:21.797Z,20.30
2023-01-13T06:52:23.691Z,31.45
2023-01-13T06:55:25.355Z,25.92
2023-01-13T06:58:27.017Z,30.33
2023-01-13T07:01:28.856Z,28.65
2023-01-13T07:04:30.530Z,21.63
2023-01-13T07:07:33.619Z,19.25
2023-01-13T07:10:35.336Z,13.30
2023-01-13T07:13:58.659Z,13.63
2023-01-13T07:17:00.363Z,16.02
2023-01-13T07:20:01.973Z,16.27
2023-01-13T07:23:03.723Z,17.63
2023-01-13T07:26:06.008Z,21.23
2023-01-13T07:29:07.622Z,20.00
2023-01-13T07:32:09.485Z,18.27
2023-01-13T07:35:11.131Z,19.10
2023-01-13T07:38:12.947Z,17.48
2023-01-13T07:41:33.288Z,14.48
2023-01-13T07:44:35.099Z,17.38
2023-01-13T07:47:36.690Z,17.27
2023-01-13T07:50:38.379Z,16.77
2023-01-13T07:53:40.047Z,14.18
2023-01-13T07:56:50.413Z,15.40
2023-01-13T07:59:52.097Z,13.98
2023-01-13T08:02:55.001Z,13.82
2023-01-13T08:05:56.699Z,14.37
2023-01-13T08:08:58.646Z,12.05
2023-01-13T08:12:18.688Z,13.55
2023-01-13T08:15:20.341Z,13.15
2023-01-13T08:18:23.056Z,15.05
2023-01-13T08:21:27.785Z,15.75
2023-01-13T08:24:29.432Z,14.88
2023-01-13T08:27:31.152Z,13.53
2023-01-13T08:30:32.758Z,13.18
2023-01-13T08:33:34.555Z,13.38
2023-01-13T08:36:36.095Z,14.77
2023-01-13T08:39:37.742Z,13.77
2023-01-13T08:42:39.374Z,13.45
2023-01-13T08:45:41.077Z,14.93
2023-01-13T08:48:42.687Z,14.15
2023-01-13T08:51:44.749Z,13.25
2023-01-13T08:54:46.488Z,13.88
2023-01-13T08:57:48.419Z,13.70
2023-01-13T09:00:50.007Z,13.00
2023-01-13T09:03:51.661Z,13.05
2023-01-13T09:06:53.704Z,13.60
2023-01-13T09:09:56.998Z,13.05
2023-01-13T09:13:14.045Z,13.55
2023-01-13T09:16:15.756Z,14.07
2023-01-13T09:19:17.391Z,14.23
2023-01-13T09:22:19.328Z,14.20
2023-01-13T09:25:20.899Z,14.30
2023-01-13T09:28:22.556Z,13.73
2023-01-13T09:31:24.223Z,15.50
2023-01-13T09:34:44.743Z,14.98
2023-01-13T09:37:46.578Z,16.30
2023-01-13T09:40:49.113Z,15.63
2023-01-13T09:43:54.042Z,19.13
2023-01-13T09:46:58.516Z,14.82
2023-01-13T09:50:08.573Z,14.07
2023-01-13T09:53:48.291Z,14.85
2023-01-13T09:56:49.890Z,14.07
2023-01-13T09:59:51.455Z,15.67
2023-01-13T10:03:14.869Z,15.00
2023-01-13T10:06:21.963Z,16.70
2023-01-13T10:09:30.813Z,16.98
2023-01-13T10:12:51.029Z,16.83
2023-01-13T10:15:57.989Z,16.88
2023-01-13T10:19:29.472Z,16.48
2023-01-13T10:22:37.155Z,16.63
2023-01-13T10:25:57.477Z,16.85
2023-01-13T10:28:59.187Z,16.08
2023-01-13T10:32:04.353Z,15.35
2023-01-13T10:35:06.247Z,15.38
2023-01-13T10:38:15.612Z,15.38
2023-01-13T10:41:17.992Z,15.68
2023-01-13T10:44:19.605Z,15.63
2023-01-13T10:47:29.114Z,14.80
2023-01-13T10:50:31.555Z,15.48
2023-01-13T10:53:33.184Z,14.55
2023-01-13T10:56:34.916Z,16.70
2023-01-13T10:59:36.603Z,14.83
2023-01-13T11:02:39.061Z,15.70
2023-01-13T11:05:40.727Z,17.73
2023-01-13T11:08:45.358Z,27.40
2023-01-13T11:11:55.551Z,26.90
2023-01-13T11:14:57.336Z,25.70
2023-01-13T11:18:05.545Z,26.20
2023-01-13T11:21:20.394Z,26.35
2023-01-13T11:24:31.138Z,21.70
2023-01-13T11:27:47.585Z,23.23
2023-01-13T11:31:13.887Z,21.35
2023-01-13T11:34:32.629Z,21.65
2023-01-13T11:37:37.384Z,19.43
2023-01-13T11:40:41.788Z,18.60
2023-01-13T11:44:13.322Z,19.13
2023-01-13T11:47:15.132Z,20.83
2023-01-13T11:50:19.424Z,20.20
2023-01-13T11:53:33.108Z,20.83
2023-01-13T11:56:49.663Z,20.65
2023-01-13T12:00:03.958Z,21.15
2023-01-13T12:03:14.266Z,20.43
2023-01-13T12:06:15.951Z,17.80
2023-01-13T12:09:29.538Z,17.48
2023-01-13T12:12:58.898Z,16.30
2023-01-13T12:16:20.744Z,16.70
2023-01-13T12:19:27.878Z,15.02
2023-01-13T12:22:30.527Z,13.57
2023-01-13T12:25:39.614Z,14.10
2023-01-13T12:28:53.721Z,14.53
2023-01-13T12:31:55.401Z,14.00
2023-01-13T12:35:12.233Z,13.60
2023-01-13T12:38:47.946Z,13.93
2023-01-13T12:42:12.723Z,13.30
2023-01-13T12:45:14.638Z,12.63
2023-01-13T12:49:04.879Z,13.57
2023-01-13T12:52:14.523Z,13.30
2023-01-13T12:55:20.402Z,13.07
2023-01-13T12:58:27.509Z,12.55
2023-01-13T13:01:35.887Z,11.20
2023-01-13T13:04:50.539Z,10.90
2023-01-13T13:07:53.579Z,10.48
2023-01-13T13:11:33.562Z,10.88
2023-01-13T13:14:38.230Z,10.63
2023-01-13T13:17:39.866Z,10.85
2023-01-13T13:21:03.773Z,9.40
2023-01-13T13:24:10.508Z,9.85
2023-01-13T13:27:27.684Z,10.63
2023-01-13T13:30:31.175Z,10.30
2023-01-13T13:33:45.361Z,9.95
2023-01-13T13:37:07.233Z,10.18
2023-01-13T13:40:28.414Z,11.07
2023-01-13T13:43:56.659Z,10.43
2023-01-13T13:47:01.463Z,10.53
2023-01-13T13:50:20.665Z,9.95
2023-01-13T13:53:22.757Z,10.48
2023-01-13T13:56:26.038Z,9.88
2023-01-13T13:59:30.620Z,11.70
2023-01-13T14:02:34.720Z,12.27
2023-01-13T14:05:36.871Z,11.07
2023-01-13T14:08:46.624Z,11.25
2023-01-13T14:12:03.579Z,12.60
2023-01-13T14:15:05.678Z,11.23
2023-01-13T14:18:15.719Z,12.80
2023-01-13T14:21:19.701Z,12.07
2023-01-13T14:24:24.547Z,11.97
2023-01-13T14:27:27.774Z,12.18
2023-01-13T14:30:29.410Z,11.43
2023-01-13T14:33:38.890Z,11.57
2023-01-13T14:36:41.659Z,13.03
2023-01-13T14:39:43.265Z,10.63
2023-01-13T14:42:44.840Z,11.38
2023-01-13T14:46:00.234Z,11.23
2023-01-13T14:49:01.992Z,10.00
2023-01-13T14:52:09.717Z,10.38
2023-01-13T14:55:27.509Z,10.45
2023-01-13T14:58:29.079Z,11.38
2023-01-13T15:01:36.421Z,12.03
2023-01-13T15:04:38.307Z,12.07
2023-01-13T15:07:39.940Z,12.27
2023-01-13T15:10:59.773Z,12.48
2023-01-13T15:14:01.658Z,11.73
2023-01-13T15:17:03.414Z,10.95
2023-01-13T15:20:07.190Z,11.77
2023-01-13T15:23:08.768Z,11.15
2023-01-13T15:26:26.959Z,10.55
2023-01-13T15:29:29.343Z,11.30
2023-01-13T15:32:30.878Z,10.75
2023-01-13T15:35:41.059Z,11.40
2023-01-13T15:38:42.656Z,12.15
2023-01-13T15:42:02.608Z,12.13
2023-01-13T15:45:22.935Z,13.38
2023-01-13T15:48:24.894Z,12.82
2023-01-13T15:51:26.485Z,12.30
2023-01-13T15:54:28.078Z,12.35
2023-01-13T15:57:31.765Z,13.02
2023-01-13T16:00:33.485Z,12.68
2023-01-13T16:03:35.102Z,13.20
2023-01-13T16:06:37.311Z,14.07
2023-01-13T16:09:38.935Z,13.93
2023-01-13T16:12:40.514Z,14.63
2023-01-13T16:15:43.860Z,14.40
2023-01-13T16:18:45.619Z,15.13
2023-01-13T16:21:47.326Z,14.25
2023-01-13T16:24:48.986Z,13.77
2023-01-13T16:27:50.942Z,14.13
2023-01-13T16:30:52.567Z,12.77
2023-01-13T16:33:54.284Z,13.70
2023-01-13T16:36:55.962Z,13.55
2023-01-13T16:39:57.649Z,13.53
2023-01-13T16:43:01.055Z,13.63
2023-01-13T16:46:02.960Z,14.15
2023-01-13T16:49:05.479Z,14.80
2023-01-13T16:52:07.153Z,14.93
2023-01-13T16:55:08.947Z,14.73
2023-01-13T16:58:18.081Z,15.80
2023-01-13T17:01:23.629Z,15.95
2023-01-13T17:04:25.409Z,15.20
2023-01-13T17:07:26.974Z,15.32
2023-01-13T17:10:32.256Z,16.67
2023-01-13T17:13:33.875Z,17.25
2023-01-13T17:16:35.667Z,16.70
2023-01-13T17:19:38.796Z,15.48
2023-01-13T17:22:41.374Z,16.20
2023-01-13T17:25:47.251Z,14.93
2023-01-13T17:28:48.869Z,15.93
2023-01-13T17:31:50.897Z,16.33
2023-01-13T17:34:54.023Z,16.00
2023-01-13T17:37:55.938Z,16.80
2023-01-13T17:41:07.617Z,16.97
2023-01-13T17:44:10.475Z,16.02
2023-01-13T17:47:12.093Z,17.17
2023-01-13T17:50:13.687Z,16.52
2023-01-13T17:53:15.257Z,17.00
2023-01-13T17:56:17.251Z,18.20
2023-01-13T17:59:19.451Z,17.55
2023-01-13T18:02:21.272Z,16.42
2023-01-13T18:05:23.045Z,17.33
2023-01-13T18:08:24.637Z,18.35
2023-01-13T18:11:29.419Z,18.85
2023-01-13T18:14:31.101Z,17.35
2023-01-13T18:17:32.724Z,18.60
2023-01-13T18:20:52.681Z,20.35
2023-01-13T18:24:12.829Z,19.73
2023-01-13T18:27:24.186Z,19.70
2023-01-13T18:30:26.662Z,18.70
2023-01-13T18:33:30.136Z,20.27
2023-01-13T18:36:31.728Z,21.00
2023-01-13T18:39:33.408Z,20.35
2023-01-13T18:42:57.894Z,19.55
2023-01-13T18:45:59.583Z,19.25
2023-01-13T18:49:01.193Z,20.45
2023-01-13T18:52:02.790Z,21.10
2023-01-13T18:55:04.595Z,20.95
2023-01-13T18:58:09.259Z,24.05
2023-01-13T19:01:10.954Z,25.40
2023-01-13T19:04:16.199Z,26.83
2023-01-13T19:07:23.408Z,26.20
2023-01-13T19:10:25.108Z,26.80
2023-01-13T19:13:26.697Z,27.35
2023-01-13T19:16:31.610Z,26.08
2023-01-13T19:19:33.224Z,24.58
2023-01-13T19:22:34.919Z,22.27
2023-01-13T19:25:37.056Z,23.13
2023-01-13T19:28:40.149Z,22.73
2023-01-13T19:31:41.730Z,21.60
2023-01-13T19:34:43.913Z,22.50
2023-01-13T19:37:45.763Z,23.03
2023-01-13T19:41:05.045Z,23.65
2023-01-13T19:44:25.167Z,22.52
2023-01-13T19:47:26.802Z,22.55
2023-01-13T19:50:28.573Z,23.67
2023-01-13T19:53:30.387Z,23.33
2023-01-13T19:56:36.049Z,36.15
2023-01-13T19:59:40.904Z,37.97
2023-01-13T20:02:49.129Z,35.30
2023-01-13T20:05:54.014Z,38.22
2023-01-13T20:08:55.609Z,38.03
2023-01-13T20:11:57.171Z,38.17
2023-01-13T20:15:02.847Z,34.88
2023-01-13T20:18:04.500Z,31.60
2023-01-13T20:21:07.086Z,26.48
2023-01-13T20:24:17.093Z,28.80
2023-01-13T20:27:19.070Z,24.42
2023-01-13T20:30:24.978Z,28.40
2023-01-13T20:33:26.578Z,34.67
2023-01-13T20:36:31.379Z,33.30
2023-01-13T20:39:34.047Z,29.45
2023-01-13T20:42:47.530Z,24.40
2023-01-13T20:45:53.486Z,25.08
2023-01-13T20:48:59.025Z,23.80
2023-01-13T20:52:00.613Z,24.02
2023-01-13T20:55:02.247Z,25.08
2023-01-13T20:58:07.418Z,21.98
2023-01-13T21:01:09.047Z,21.97
2023-01-13T21:04:10.816Z,22.42
2023-01-13T21:07:12.422Z,21.40
2023-01-13T21:10:14.093Z,20.92
2023-01-13T21:13:34.106Z,22.43
2023-01-13T21:16:35.710Z,21.55
2023-01-13T21:19:37.335Z,23.35
2023-01-13T21:22:39.106Z,23.20
2023-01-13T21:25:41.151Z,23.70
2023-01-13T21:28:45.454Z,22.48
2023-01-13T21:31:47.169Z,23.50
2023-01-13T21:34:48.764Z,24.67
2023-01-13T21:37:51.056Z,25.30
2023-01-13T21:41:02.792Z,23.98
2023-01-13T21:44:22.986Z,24.48
2023-01-13T21:47:42.801Z,25.38
2023-01-13T21:50:45.321Z,24.53
2023-01-13T21:53:46.903Z,24.08
2023-01-13T21:56:48.477Z,23.77
2023-01-13T21:59:50.051Z,24.85
2023-01-13T22:02:56.083Z,24.70
2023-01-13T22:05:57.692Z,23.73
2023-01-13T22:09:01.048Z,24.10
2023-01-13T22:12:02.653Z,25.80
2023-01-13T22:15:04.740Z,26.83
2023-01-13T22:18:06.456Z,26.17
2023-01-13T22:21:08.104Z,26.70
2023-01-13T22:24:09.689Z,25.92
2023-01-13T22:27:11.331Z,26.03
2023-01-13T22:30:15.793Z,27.33
2023-01-13T22:33:20.541Z,26.63
2023-01-13T22:36:24.048Z,25.30
2023-01-13T22:39:25.800Z,27.48
2023-01-13T22:42:27.369Z,30.27
2023-01-13T22:45:28.940Z,30.30
2023-01-13T22:48:30.606Z,28.67
2023-01-13T22:51:32.209Z,27.20
2023-01-13T22:54:33.862Z,29.10
2023-01-13T22:57:42.578Z,29.90
2023-01-13T23:00:48.758Z,27.33
2023-01-13T23:03:50.429Z,28.67
2023-01-13T23:06:52.002Z,33.33
2023-01-13T23:09:53.553Z,33.35
2023-01-13T23:12:55.135Z,35.25
2023-01-13T23:16:04.458Z,34.13
2023-01-13T23:19:06.360Z,29.48
2023-01-13T23:22:07.956Z,30.23
2023-01-13T23:25:09.815Z,30.60
2023-01-13T23:28:11.426Z,29.38
2023-01-13T23:31:15.290Z,27.55
2023-01-13T23:34:16.951Z,28.20
2023-01-13T23:37:18.565Z,25.88
2023-01-13T23:40:20.164Z,26.60
2023-01-13T23:43:22.186Z,25.45
2023-01-13T23:46:28.101Z,24.07
2023-01-13T23:49:29.688Z,25.27
2023-01-13T23:52:31.378Z,25.15
2023-01-13T23:55:32.955Z,25.35
2023-01-13T23:58:35.057Z,24.40
